Morann, Pennsylvania
Current Conditions -  °F | °C
As of 2:54 PM on Sunday 28 Dec 2014 (Local Time) from KFIG Reporting Station
Overcast Overcast  
Wind Chill: 32°   Ceiling: 3200
Heat Index: 38°   Visibility: 10mi
Dew Point: 29°   Wind: 8mph
Humidity: 70%   Direction: 280°W
Pressure: 30"   Gusts: 22mph
Location:  40.79°N, 78.37°W
Report Text: KFIG 281954Z AUTO 28007G19KT 240V310 10SM SCT025 BKN032 OVC048 03/M02 A3000 RMK AO2 PRESRR SLP167 T00331017
Loading
Personal Weather Stations






























Interactive Weather Map New forecast layout! Learn more

10-Day Weather Forecast

Advertisements
Track Severe Weather on mobile